This is the latest recevied weather packets stored in our database for station/object SV2ASS-2. If no packets are shown the sender has not sent any weather packets the latest 10 day(s).
| Time | Temp. | Humidity | Pressure | Rain* | Wind** | Luminosity | Snow |
|---|---|---|---|---|---|---|---|
| 1777778863 | 6.67° C | 64% | 1020.5 hPa | - | - | - | - |
| 1777777963 | 6.67° C | 65% | 1020.4 hPa | - | - | - | - |
| 1777777067 | 6.67° C | 63% | 1020.4 hPa | - | - | - | - |
| 1777776167 | 6.67° C | 62% | 1020.4 hPa | - | - | - | - |
| 1777775266 | 7.22° C | 62% | 1020.3 hPa | - | - | - | - |
| 1777774366 | 7.22° C | 63% | 1020.4 hPa | - | - | - | - |
| 1777773466 | 7.22° C | 62% | 1020.2 hPa | - | - | - | - |
| 1777772566 | 7.22° C | 62% | 1020.3 hPa | - | - | - | - |
| 1777771666 | 7.22° C | 62% | 1020.3 hPa | - | - | - | - |
| 1777770766 | 7.22° C | 60% | 1020.4 hPa | - | - | - | - |
| 1777769866 | 7.22° C | 61% | 1020.4 hPa | - | - | - | - |
| 1777768966 | 7.22° C | 61% | 1020.6 hPa | - | - | - | - |
| 1777768066 | 7.22° C | 61% | 1021.1 hPa | - | - | - | - |
| 1777767166 | 7.78° C | 61% | 1021.2 hPa | - | - | - | - |
| 1777766265 | 7.78° C | 61% | 1021.5 hPa | - | - | - | - |
| 1777765365 | 7.78° C | 62% | 1021.4 hPa | - | - | - | - |
| 1777764465 | 7.78° C | 63% | 1021.6 hPa | - | - | - | - |
| 1777763565 | 8.33° C | 61% | 1021.6 hPa | - | - | - | - |
| 1777762664 | 7.78° C | 63% | 1021.8 hPa | - | - | - | - |
| 1777761764 | 8.33° C | 62% | 1021.6 hPa | - | - | - | - |
| 1777760863 | 8.33° C | 62% | 1021.4 hPa | - | - | - | - |
| 1777759963 | 9.44° C | 61% | 1021.9 hPa | - | - | - | - |
| 1777759063 | 10° C | 59% | 1022.3 hPa | - | - | - | - |
| 1777758163 | 10° C | 58% | 1022.5 hPa | - | - | - | - |
| 1777757263 | 11.67° C | 54% | 1022.8 hPa | - | - | - | - |
* Rain since midnight (hover to see other rain measurements)
** Current wind speed in m/s (hover to see current wind gust speed)